createdAt,value
2022-09-24T00:04:48.228Z,97435.28
2022-09-24T00:07:14.193Z,97433.69
2022-09-24T00:09:40.152Z,97428.16
2022-09-24T00:12:07.045Z,97433.75
2022-09-24T00:14:33.008Z,97436.81
2022-09-24T00:16:59.001Z,97424.66
2022-09-24T00:19:24.932Z,97428.56
2022-09-24T00:21:50.898Z,97425.69
2022-09-24T00:24:16.853Z,97422.00
2022-09-24T00:26:42.829Z,97424.88
2022-09-24T00:29:09.683Z,97425.19
2022-09-24T00:31:36.492Z,97421.25
2022-09-24T00:34:02.554Z,97414.53
2022-09-24T00:36:28.537Z,97417.06
2022-09-24T00:38:54.489Z,97413.34
2022-09-24T00:41:20.486Z,97406.88
2022-09-24T00:43:46.516Z,97410.06
2022-09-24T00:46:12.502Z,97404.00
2022-09-24T00:48:39.349Z,97398.34
2022-09-24T00:51:05.319Z,97399.78
2022-09-24T00:53:31.276Z,97395.16
2022-09-24T00:55:58.189Z,97391.31
2022-09-24T00:58:24.134Z,97391.31
2022-09-24T01:00:50.189Z,97388.22
2022-09-24T01:03:17.075Z,97389.22
2022-09-24T01:05:43.427Z,97387.41
2022-09-24T01:08:09.351Z,97391.72
2022-09-24T01:10:35.295Z,97388.03
2022-09-24T01:13:01.496Z,97388.91
2022-09-24T01:15:27.523Z,97384.44
2022-09-24T01:17:53.507Z,97375.34
2022-09-24T01:20:19.492Z,97379.91
2022-09-24T01:22:46.419Z,97370.81
2022-09-24T01:25:12.375Z,97373.72
2022-09-24T01:27:38.550Z,97377.00
2022-09-24T01:30:05.354Z,97375.25
2022-09-24T01:32:32.626Z,97370.22
2022-09-24T01:34:58.716Z,97372.78
2022-09-24T01:37:26.965Z,97363.50
2022-09-24T01:39:52.957Z,97360.00
2022-09-24T01:42:19.622Z,97356.59
2022-09-24T01:44:46.357Z,97356.44
2022-09-24T01:47:12.327Z,97355.59
2022-09-24T01:49:38.290Z,97351.78
2022-09-24T01:52:05.214Z,97352.72
2022-09-24T01:54:31.156Z,97352.72
2022-09-24T01:56:57.113Z,97350.59
2022-09-24T01:59:23.085Z,97349.81
2022-09-24T02:01:49.651Z,97351.50
2022-09-24T02:04:15.680Z,97343.38
2022-09-24T02:06:41.628Z,97336.28
2022-09-24T02:09:08.250Z,97339.03
2022-09-24T02:11:34.220Z,97340.53
2022-09-24T02:14:00.152Z,97339.16
2022-09-24T02:16:26.494Z,97342.72
2022-09-24T02:18:52.590Z,97332.22
2022-09-24T02:21:18.543Z,97336.47
2022-09-24T02:23:44.480Z,97340.03
2022-09-24T02:26:10.438Z,97340.59
2022-09-24T02:28:36.422Z,97330.34
2022-09-24T02:31:03.359Z,97340.47
2022-09-24T02:33:29.348Z,97330.69
2022-09-24T02:35:55.277Z,97326.63
2022-09-24T02:38:22.207Z,97322.34
2022-09-24T02:40:48.226Z,97322.00
2022-09-24T02:43:14.622Z,97325.81
2022-09-24T02:45:42.150Z,97322.84
2022-09-24T02:48:08.483Z,97309.91
2022-09-24T02:50:34.565Z,97310.06
2022-09-24T02:53:02.103Z,97301.31
2022-09-24T02:55:28.221Z,97301.53
2022-09-24T04:57:17.401Z,97231.41
2022-09-24T04:59:43.958Z,97233.88
2022-09-24T05:02:10.104Z,97237.81
2022-09-24T05:04:37.087Z,97248.41
2022-09-24T05:07:03.055Z,97255.06
2022-09-24T05:09:28.996Z,97251.38
2022-09-24T05:11:54.988Z,97247.69
2022-09-24T05:14:20.940Z,97250.59
2022-09-24T05:16:47.850Z,97256.88
2022-09-24T05:19:13.803Z,97250.56
2022-09-24T05:21:39.751Z,97253.84
2022-09-24T05:24:05.714Z,97257.69
2022-09-24T05:26:31.980Z,97261.97
2022-09-24T05:28:57.930Z,97262.56
2022-09-24T05:31:23.933Z,97261.22
2022-09-24T05:33:50.915Z,97263.78
2022-09-24T05:36:17.135Z,97270.53
2022-09-24T05:38:43.091Z,97273.81
2022-09-24T05:41:09.904Z,97271.38
2022-09-24T05:43:35.857Z,97280.38
2022-09-24T05:46:01.829Z,97271.88
2022-09-24T05:48:27.824Z,97281.66
2022-09-24T05:50:53.747Z,97283.69
2022-09-24T05:53:20.606Z,97288.59
2022-09-24T05:55:46.538Z,97287.16
2022-09-24T05:58:12.486Z,97277.66
2022-09-24T06:00:38.448Z,97268.72
2022-09-24T06:03:04.511Z,97271.56
2022-09-24T06:05:30.597Z,97286.00
2022-09-24T06:07:56.534Z,97280.91
2022-09-24T06:10:22.597Z,97281.34
2022-09-24T06:12:48.561Z,97275.06
2022-09-24T06:15:15.378Z,97272.41
2022-09-24T06:17:41.347Z,97273.63
2022-09-24T06:20:07.290Z,97271.38
2022-09-24T06:22:33.259Z,97271.97
2022-09-24T06:27:43.555Z,97252.09
2022-09-24T06:30:09.561Z,97246.16
2022-09-24T06:32:35.497Z,97246.09
2022-09-24T06:35:01.456Z,97255.22
2022-09-24T06:37:27.412Z,97256.81
2022-09-24T06:39:53.360Z,97251.50
2022-09-24T06:42:20.227Z,97247.31
2022-09-24T06:44:46.182Z,97252.88
2022-09-24T06:47:12.188Z,97255.84
2022-09-24T06:49:39.011Z,97256.56
2022-09-24T06:52:04.989Z,97251.19
2022-09-24T06:54:30.927Z,97255.41
2022-09-24T06:56:56.890Z,97246.47
2022-09-24T06:59:23.720Z,97241.56
2022-09-24T07:01:49.762Z,97247.88
2022-09-24T07:04:16.159Z,97249.13
2022-09-24T07:06:42.275Z,97242.84
2022-09-24T07:09:08.285Z,97246.38
2022-09-24T07:11:34.270Z,97246.41
2022-09-24T07:14:00.819Z,97235.09
2022-09-24T07:16:26.840Z,97239.31
2022-09-24T07:18:53.354Z,97246.25
2022-09-24T07:21:20.239Z,97252.63
2022-09-24T07:23:46.196Z,97250.31
2022-09-24T07:26:12.145Z,97241.38
2022-09-24T07:28:38.821Z,97243.09
2022-09-24T07:31:04.902Z,97238.06
2022-09-24T07:33:30.908Z,97239.38
2022-09-24T07:35:57.645Z,97242.69
2022-09-24T07:38:23.951Z,97241.16
2022-09-24T07:40:51.697Z,97234.28
2022-09-24T07:43:17.952Z,97234.53
2022-09-24T07:45:44.216Z,97233.19
2022-09-24T07:48:10.526Z,97228.41
2022-09-24T09:58:16.470Z,97201.75
2022-09-24T10:00:42.455Z,97195.31
2022-09-24T10:03:08.536Z,97188.19
2022-09-24T10:05:34.618Z,97181.97
2022-09-24T10:08:00.621Z,97182.00
2022-09-24T10:10:26.579Z,97177.28
2022-09-24T10:12:52.547Z,97174.97
2022-09-24T10:15:18.512Z,97174.19
2022-09-24T10:17:44.677Z,97181.31
2022-09-24T10:20:10.634Z,97173.56
2022-09-24T10:22:36.568Z,97172.25
2022-09-24T10:25:02.533Z,97163.69
2022-09-24T10:27:28.511Z,97167.69
2022-09-24T10:29:54.487Z,97164.13
2022-09-24T10:32:20.475Z,97160.97
2022-09-24T10:34:46.437Z,97165.88
2022-09-24T10:37:12.380Z,97162.53
2022-09-24T10:39:39.227Z,97162.00
2022-09-24T10:42:05.203Z,97162.81
2022-09-24T10:44:31.142Z,97167.75
2022-09-24T10:46:57.219Z,97161.28
2022-09-24T10:49:23.221Z,97166.03
2022-09-24T10:51:49.234Z,97158.84
2022-09-24T10:54:15.894Z,97155.56
2022-09-24T10:56:46.123Z,97160.41
2022-09-24T10:59:12.661Z,97151.13
2022-09-24T11:01:38.687Z,97148.22
2022-09-24T11:04:04.739Z,97143.97
2022-09-24T11:06:30.732Z,97137.34
2022-09-24T11:08:56.689Z,97141.31
2022-09-24T11:11:23.352Z,97139.00
2022-09-24T11:13:51.547Z,97134.34
2022-09-24T11:16:17.727Z,97134.47
2022-09-24T11:18:43.692Z,97142.19
2022-09-24T11:21:09.654Z,97137.88
2022-09-24T11:23:36.402Z,97133.88
2022-09-24T11:26:02.364Z,97135.88
2022-09-24T11:28:28.316Z,97135.97
2022-09-24T11:30:55.071Z,97138.91
2022-09-24T11:33:23.190Z,97130.34
2022-09-24T11:35:49.441Z,97128.53
2022-09-24T11:38:16.187Z,97130.91
2022-09-24T11:40:42.256Z,97130.34
2022-09-24T11:43:08.271Z,97134.56
2022-09-24T11:45:34.919Z,97137.66
2022-09-24T11:48:00.907Z,97130.41
2022-09-24T11:50:26.879Z,97131.94
2022-09-24T11:52:53.034Z,97127.44
2022-09-24T11:55:19.678Z,97122.34
2022-09-24T11:57:45.673Z,97125.25
2022-09-24T12:00:11.706Z,97122.94
2022-09-24T12:02:37.827Z,97129.31
2022-09-24T12:05:03.816Z,97124.00
2022-09-24T12:07:29.781Z,97115.41
2022-09-24T12:09:56.509Z,97114.38
2022-09-24T12:12:22.970Z,97114.41
2022-09-24T12:14:48.938Z,97104.34
2022-09-24T12:17:14.883Z,97105.50
2022-09-24T12:19:41.776Z,97104.03
2022-09-24T12:22:07.725Z,97107.28
2022-09-24T12:24:33.685Z,97104.50
2022-09-24T12:26:59.625Z,97103.53
2022-09-24T12:29:26.077Z,97109.69
2022-09-24T12:31:53.540Z,97106.13
2022-09-24T12:34:20.269Z,97101.84
2022-09-24T12:36:48.024Z,97102.81
2022-09-24T12:39:14.334Z,97105.94
2022-09-24T12:41:40.623Z,97104.28
2022-09-24T12:44:06.907Z,97116.47
2022-09-24T12:46:33.288Z,97115.63
2022-09-24T12:48:59.431Z,97101.69
2022-09-24T14:55:32.423Z,97038.94
2022-09-24T14:57:58.383Z,97029.53
2022-09-24T15:00:24.360Z,97032.31
2022-09-24T15:02:50.999Z,97030.59
2022-09-24T15:05:16.990Z,97032.75
2022-09-24T15:07:42.944Z,97040.53
2022-09-24T15:10:08.911Z,97044.00
2022-09-24T15:12:34.881Z,97043.44
2022-09-24T15:15:01.651Z,97035.72
2022-09-24T15:17:27.664Z,97036.19
2022-09-24T15:19:54.286Z,97036.97
2022-09-24T15:22:20.253Z,97034.28
2022-09-24T15:24:46.420Z,97033.94
2022-09-24T15:27:13.184Z,97032.84
2022-09-24T15:29:39.135Z,97038.50
2022-09-24T15:32:05.071Z,97036.31
2022-09-24T15:34:31.042Z,97032.59
2022-09-24T15:36:57.021Z,97033.38
2022-09-24T15:39:23.001Z,97027.50
2022-09-24T15:41:48.984Z,97020.84
2022-09-24T15:44:14.911Z,97022.69
2022-09-24T15:46:40.964Z,97024.25
2022-09-24T15:49:06.992Z,97017.63
2022-09-24T15:51:33.007Z,97025.16
2022-09-24T15:53:58.940Z,97024.69
2022-09-24T15:56:28.017Z,97026.59
2022-09-24T15:58:54.938Z,97022.84
2022-09-24T16:01:20.987Z,97022.69
2022-09-24T16:03:47.049Z,97025.34
2022-09-24T16:06:12.992Z,97022.69
2022-09-24T16:08:38.959Z,97026.78
2022-09-24T16:11:08.857Z,97023.25
2022-09-24T16:13:35.199Z,97023.53
2022-09-24T16:16:05.248Z,97026.47
2022-09-24T16:18:32.547Z,97022.75
2022-09-24T16:20:58.534Z,97018.19
2022-09-24T16:23:24.544Z,97021.72
2022-09-24T16:25:50.529Z,97014.72
2022-09-24T16:28:17.246Z,97030.25
2022-09-24T16:30:43.245Z,97026.50
2022-09-24T16:33:09.268Z,97026.25
2022-09-24T16:35:35.826Z,97029.72
2022-09-24T16:38:01.797Z,97030.81
2022-09-24T16:40:27.833Z,97030.53
2022-09-24T16:42:53.867Z,97026.81
2022-09-24T16:45:20.737Z,97033.78
2022-09-24T16:47:46.729Z,97037.81
2022-09-24T16:50:13.316Z,97035.63
2022-09-24T16:52:39.296Z,97028.69
2022-09-24T16:55:05.278Z,97028.06
2022-09-24T16:57:32.025Z,97035.59
2022-09-24T16:59:58.132Z,97034.00
2022-09-24T17:02:24.190Z,97033.44
2022-09-24T17:04:50.382Z,97035.84
2022-09-24T17:07:16.333Z,97035.84
2022-09-24T17:09:42.286Z,97034.16
2022-09-24T17:12:08.266Z,97041.41
2022-09-24T17:14:35.025Z,97039.53
2022-09-24T17:17:01.005Z,97043.25
2022-09-24T17:19:26.946Z,97038.66
2022-09-24T17:21:53.315Z,97043.97
2022-09-24T17:24:22.002Z,97043.44
2022-09-24T17:26:48.338Z,97050.81
2022-09-24T17:29:14.277Z,97048.41
2022-09-24T17:31:42.063Z,97049.59
2022-09-24T17:34:08.937Z,97052.03
2022-09-24T17:36:35.172Z,97045.09
2022-09-24T19:56:36.505Z,97082.34
2022-09-24T19:59:03.016Z,97077.84
2022-09-24T20:01:29.040Z,97087.88
2022-09-24T20:03:55.091Z,97080.50
2022-09-24T20:06:21.048Z,97079.16
2022-09-24T20:08:47.001Z,97088.47
2022-09-24T20:11:12.973Z,97077.78
2022-09-24T20:13:38.943Z,97081.63
2022-09-24T20:16:05.010Z,97092.56
2022-09-24T20:18:31.010Z,97091.84
2022-09-24T20:20:57.639Z,97091.59
2022-09-24T20:23:23.604Z,97095.91
2022-09-24T20:25:49.559Z,97093.81
2022-09-24T20:28:15.636Z,97086.81
2022-09-24T20:30:42.653Z,97093.03
2022-09-24T20:33:08.743Z,97102.41
2022-09-24T20:35:34.700Z,97095.56
2022-09-24T20:38:00.720Z,97097.88
2022-09-24T20:40:26.715Z,97092.50
2022-09-24T20:42:52.726Z,97094.88
2022-09-24T20:45:19.631Z,97090.38
2022-09-24T20:47:46.396Z,97103.09
2022-09-24T20:50:12.354Z,97099.16
2022-09-24T20:52:39.023Z,97107.25
2022-09-24T20:55:04.984Z,97106.28
2022-09-24T20:57:31.024Z,97109.69
2022-09-24T20:59:56.989Z,97108.06
2022-09-24T21:02:22.949Z,97104.00
2022-09-24T21:04:49.716Z,97115.91
2022-09-24T21:07:16.564Z,97111.38
2022-09-24T21:09:42.532Z,97108.81
2022-09-24T21:12:08.525Z,97105.84
2022-09-24T21:14:34.469Z,97105.25
2022-09-24T21:17:01.261Z,97101.78
2022-09-24T21:19:27.222Z,97103.50
2022-09-24T21:21:53.205Z,97101.22
2022-09-24T21:24:19.126Z,97101.56
2022-09-24T21:26:45.278Z,97097.88
2022-09-24T21:29:11.426Z,97101.31
2022-09-24T21:31:37.352Z,97105.81
2022-09-24T21:34:03.999Z,97100.16
2022-09-24T21:36:30.028Z,97107.69
2022-09-24T21:38:56.876Z,97109.13
2022-09-24T21:41:22.807Z,97109.13
2022-09-24T21:43:48.773Z,97100.31
2022-09-24T21:46:14.778Z,97101.25
2022-09-24T21:48:40.858Z,97104.50
2022-09-24T21:51:06.836Z,97106.56
2022-09-24T21:53:32.782Z,97100.75
2022-09-24T21:55:58.760Z,97106.41
2022-09-24T21:58:24.693Z,97109.94
2022-09-24T22:00:50.625Z,97104.41
2022-09-24T22:03:19.484Z,97114.31
2022-09-24T22:05:45.460Z,97109.44
2022-09-24T22:08:11.397Z,97106.47
2022-09-24T22:10:37.356Z,97100.72
2022-09-24T22:13:03.277Z,97108.56
2022-09-24T22:15:31.597Z,97097.88
2022-09-24T22:17:57.770Z,97095.09
2022-09-24T22:20:24.380Z,97101.22
2022-09-24T22:22:50.337Z,97103.81
2022-09-24T22:25:16.306Z,97100.50
2022-09-24T22:27:44.174Z,97096.31
2022-09-24T22:30:10.114Z,97093.28
2022-09-24T22:32:36.392Z,97094.22
2022-09-24T22:35:03.565Z,97086.28
2022-09-24T22:37:29.844Z,97082.91
2022-09-24T22:39:56.141Z,97079.06
2022-09-24T22:42:22.417Z,97079.13
2022-09-24T22:47:28.976Z,97087.66
